Time;durP1;ratioP1;P1;durP2;ratioP2;P2;SDS_P1;SDS_P2;PMS_P1;PMS_P2;Temp;Humidity;BMP_temperature;BMP_pressure;BME280_temperature;BME280_humidity;BME280_pressure;Samples;Min_cycle;Max_cycle;Signal;HPM_P1;HPM_P2
2023/03/02 00:01:37;;;;;;;3.35;2.35;;;18.20;1.00;;;;;;5071671;28;20492;-45
2023/03/02 00:04:06;;;;;;;5.40;2.58;;;18.20;1.00;;;;;;5071014;28;20211;-43
2023/03/02 00:06:35;;;;;;;3.55;2.50;;;18.10;1.00;;;;;;5071749;28;20541;-44
2023/03/02 00:09:03;;;;;;;4.95;3.40;;;18.10;1.00;;;;;;5071493;28;20451;-44
2023/03/02 00:11:32;;;;;;;5.43;2.97;;;18.00;1.00;;;;;;5071833;28;20055;-44
2023/03/02 00:13:59;;;;;;;5.05;3.60;;;18.00;1.00;;;;;;5070908;28;20094;-43
2023/03/02 00:16:26;;;;;;;4.72;3.58;;;18.00;1.00;;;;;;5071428;28;20064;-43
2023/03/02 00:18:52;;;;;;;5.72;3.53;;;17.90;1.00;;;;;;5071052;28;20492;-44
2023/03/02 00:21:19;;;;;;;4.03;2.97;;;17.90;1.00;;;;;;5082846;22;20114;-39
2023/03/02 00:23:46;;;;;;;3.97;3.05;;;17.90;1.00;;;;;;5062944;28;20041;-39
2023/03/02 00:26:13;;;;;;;7.65;3.85;;;17.80;1.00;;;;;;5044388;28;20525;-38
2023/03/02 00:28:40;;;;;;;6.95;3.67;;;17.80;1.00;;;;;;5065591;28;20066;-38
2023/03/02 00:31:07;;;;;;;6.57;3.80;;;17.70;1.00;;;;;;5069705;28;20068;-39
2023/03/02 00:33:34;;;;;;;5.72;3.83;;;17.70;1.00;;;;;;5064075;28;20472;-38
2023/03/02 00:36:01;;;;;;;4.88;3.65;;;17.60;1.00;;;;;;5071282;28;20388;-39
2023/03/02 00:38:28;;;;;;;5.95;4.20;;;17.60;1.00;;;;;;5053092;28;20418;-38
2023/03/02 00:40:55;;;;;;;6.13;4.05;;;17.60;1.00;;;;;;5070693;28;20037;-38
2023/03/02 00:43:26;;;;;;;6.78;3.67;;;17.60;1.00;;;;;;5066503;28;20063;-38
2023/03/02 00:45:54;;;;;;;6.57;3.60;;;17.60;1.00;;;;;;5053727;28;20052;-38
2023/03/02 00:48:21;;;;;;;6.30;4.28;;;17.50;1.00;;;;;;5071030;28;20469;-39
2023/03/02 00:50:48;;;;;;;5.18;4.25;;;17.50;1.00;;;;;;5052945;28;20044;-38
2023/03/02 00:53:16;;;;;;;6.28;4.50;;;17.40;1.00;;;;;;5069533;28;20064;-39
2023/03/02 00:55:53;;;;;;;6.82;3.75;;;17.40;1.00;;;;;;5052099;28;20109;-38
2023/03/02 00:58:21;;;;;;;7.30;4.25;;;17.40;1.00;;;;;;5070828;28;20036;-38
2023/03/02 01:00:48;;;;;;;4.93;3.45;;;17.40;1.00;;;;;;5056198;28;20132;-38
2023/03/02 01:03:15;;;;;;;5.20;3.97;;;17.30;1.00;;;;;;5055995;28;20117;-39
2023/03/02 01:05:43;;;;;;;5.95;3.67;;;17.30;1.00;;;;;;5056703;28;20131;-38
2023/03/02 01:08:10;;;;;;;4.82;3.15;;;17.30;1.00;;;;;;5056816;28;20048;-38
2023/03/02 01:10:37;;;;;;;5.05;3.97;;;17.20;1.00;;;;;;5074760;28;20040;-38
2023/03/02 01:13:04;;;;;;;7.85;3.88;;;17.20;1.00;;;;;;5073800;28;20067;-38
2023/03/02 01:15:32;;;;;;;5.00;3.72;;;17.20;1.00;;;;;;5056456;28;20503;-38
2023/03/02 01:18:00;;;;;;;4.63;3.53;;;17.20;1.00;;;;;;5056483;28;20044;-38
2023/03/02 01:20:27;;;;;;;5.78;4.20;;;17.10;1.00;;;;;;5056051;28;20047;-38
2023/03/02 01:22:54;;;;;;;5.95;4.53;;;17.10;1.00;;;;;;5054689;28;20071;-38
2023/03/02 01:25:21;;;;;;;4.47;3.38;;;17.10;1.00;;;;;;5073662;28;20608;-38
2023/03/02 01:27:48;;;;;;;6.50;4.03;;;17.10;1.00;;;;;;5055410;28;20045;-38
2023/03/02 01:30:14;;;;;;;5.57;3.78;;;17.00;1.00;;;;;;5055976;28;20048;-38
2023/03/02 01:32:42;;;;;;;7.13;4.10;;;17.00;1.00;;;;;;5055367;28;20044;-38
2023/03/02 01:35:09;;;;;;;5.18;3.65;;;17.00;1.00;;;;;;5074181;28;20554;-38
2023/03/02 01:37:36;;;;;;;3.97;3.08;;;17.00;1.00;;;;;;5074083;28;20097;-38
2023/03/02 01:40:05;;;;;;;5.20;3.40;;;16.90;1.00;;;;;;5074242;28;20044;-38
2023/03/02 01:42:45;;;;;;;6.07;4.28;;;16.90;1.00;;;;;;5055339;28;20036;-38
2023/03/02 01:45:45;;;;;;;6.13;4.07;;;16.90;1.00;;;;;;5065532;28;20106;-38
2023/03/02 01:48:29;;;;;;;4.88;3.33;;;16.80;1.00;;;;;;5056019;28;20049;-38
2023/03/02 01:50:57;;;;;;;4.82;3.13;;;16.80;1.00;;;;;;5055855;28;20049;-38
2023/03/02 01:53:28;;;;;;;5.95;4.05;;;16.80;1.00;;;;;;5053184;28;20045;-38
2023/03/02 01:55:56;;;;;;;4.55;3.33;;;16.80;1.00;;;;;;5072343;28;20478;-38
2023/03/02 01:58:24;;;;;;;5.47;3.78;;;16.70;1.00;;;;;;5055101;28;20484;-38
2023/03/02 02:00:53;;;;;;;5.30;4.25;;;16.70;1.00;;;;;;5055000;28;20047;-38
2023/03/02 02:03:23;;;;;;;4.60;3.85;;;16.70;1.00;;;;;;5072737;28;20040;-38
2023/03/02 02:06:04;;;;;;;5.43;3.88;;;16.70;1.00;;;;;;5055675;28;20044;-38
2023/03/02 02:08:32;;;;;;;4.78;3.83;;;16.60;1.00;;;;;;5073504;28;20040;-38
2023/03/02 02:10:59;;;;;;;7.78;4.50;;;16.60;1.00;;;;;;5054791;28;20523;-38
2023/03/02 02:13:26;;;;;;;4.80;3.65;;;16.60;1.00;;;;;;5072425;28;20048;-38
2023/03/02 02:15:53;;;;;;;4.78;3.60;;;16.60;1.00;;;;;;5072415;28;20051;-38
2023/03/02 02:18:19;;;;;;;4.70;3.60;;;16.60;1.00;;;;;;5054501;28;20479;-38
2023/03/02 02:20:47;;;;;;;6.70;4.20;;;16.60;1.00;;;;;;5054487;28;20094;-38
2023/03/02 02:23:27;;;;;;;5.72;3.40;;;16.60;1.00;;;;;;5053256;28;20408;-38
2023/03/02 02:26:11;;;;;;;5.53;4.50;;;16.50;1.00;;;;;;5072371;28;20044;-38
2023/03/02 02:28:46;;;;;;;6.50;4.05;;;16.50;1.00;;;;;;5054394;28;20048;-38
2023/03/02 02:31:25;;;;;;;6.03;4.57;;;16.50;1.00;;;;;;5054088;28;20074;-38
2023/03/02 02:34:00;;;;;;;6.20;3.83;;;16.50;1.00;;;;;;5071413;28;20036;-38
2023/03/02 02:36:36;;;;;;;5.72;4.30;;;16.50;1.00;;;;;;5053944;28;20044;-38
2023/03/02 02:39:13;;;;;;;6.00;4.15;;;16.40;1.00;;;;;;5053368;28;20056;-38
2023/03/02 02:41:41;;;;;;;5.75;4.38;;;16.40;1.00;;;;;;5053304;28;20075;-38
2023/03/02 02:44:14;;;;;;;5.63;3.63;;;16.40;1.00;;;;;;5052523;28;20036;-38
2023/03/02 02:46:41;;;;;;;5.30;3.75;;;16.40;1.00;;;;;;5053703;28;20090;-38
2023/03/02 02:49:37;;;;;;;5.90;3.83;;;16.40;1.00;;;;;;5071845;28;20075;-38
2023/03/02 02:52:05;;;;;;;7.43;3.90;;;16.30;1.00;;;;;;5053546;28;20054;-38
2023/03/02 02:54:35;;;;;;;4.90;3.80;;;16.30;1.00;;;;;;5071156;28;20063;-38
2023/03/02 02:57:03;;;;;;;4.50;3.33;;;16.30;1.00;;;;;;5053638;28;20048;-38
2023/03/02 02:59:42;;;;;;;6.28;4.32;;;16.30;1.00;;;;;;5036221;28;20131;-38
2023/03/02 03:02:19;;;;;;;6.18;4.50;;;16.30;1.00;;;;;;5052586;28;20090;-38
2023/03/02 03:04:46;;;;;;;4.95;3.85;;;16.20;1.00;;;;;;5052579;28;20044;-38
2023/03/02 03:07:20;;;;;;;5.40;3.90;;;16.20;1.00;;;;;;5052953;28;20149;-38
2023/03/02 03:09:56;;;;;;;6.07;4.25;;;16.20;1.00;;;;;;5053710;28;20040;-38
2023/03/02 03:12:25;;;;;;;6.95;4.38;;;16.20;1.00;;;;;;5053208;28;20094;-38
2023/03/02 03:14:53;;;;;;;7.43;4.82;;;16.20;1.00;;;;;;5053257;28;20114;-38
2023/03/02 03:17:20;;;;;;;5.32;4.30;;;16.20;1.00;;;;;;5071412;28;20037;-38
2023/03/02 03:19:52;;;;;;;7.22;4.38;;;16.10;1.00;;;;;;5053054;28;20040;-38
2023/03/02 03:22:19;;;;;;;7.25;5.22;;;16.10;1.00;;;;;;5015092;28;1066232;-38
2023/03/02 03:24:48;;;;;;;5.28;4.10;;;16.10;1.00;;;;;;5052933;28;20052;-38
2023/03/02 03:27:17;;;;;;;5.07;3.97;;;16.10;1.00;;;;;;5053307;28;20044;-38
2023/03/02 03:29:49;;;;;;;7.03;4.07;;;16.10;1.00;;;;;;5053756;28;20048;-38
2023/03/02 03:32:18;;;;;;;5.00;3.67;;;16.10;1.00;;;;;;5053708;28;20106;-38
2023/03/02 03:34:46;;;;;;;6.45;4.95;;;16.00;1.00;;;;;;5053658;28;20076;-38
2023/03/02 03:37:22;;;;;;;4.47;3.42;;;16.00;1.00;;;;;;5054006;28;20731;-38
2023/03/02 03:39:49;;;;;;;4.72;3.63;;;16.00;1.00;;;;;;5054062;28;20530;-38
2023/03/02 03:42:17;;;;;;;4.65;3.35;;;16.00;1.00;;;;;;5053558;28;20102;-38
2023/03/02 03:44:45;;;;;;;5.80;3.63;;;15.90;1.00;;;;;;5053524;28;20060;-38
2023/03/02 03:47:11;;;;;;;3.75;3.33;;;16.00;1.00;;;;;;5053914;28;20052;-38
2023/03/02 03:49:38;;;;;;;4.20;3.30;;;15.90;1.00;;;;;;5071795;28;20047;-38
2023/03/02 03:52:06;;;;;;;4.20;3.63;;;15.90;1.00;;;;;;5053679;28;20052;-38
2023/03/02 03:54:33;;;;;;;4.07;2.97;;;15.90;1.00;;;;;;5070203;28;20044;-38
2023/03/02 03:57:00;;;;;;;3.88;3.05;;;15.90;1.00;;;;;;5052875;28;20041;-38
2023/03/02 03:59:27;;;;;;;5.93;2.92;;;15.90;1.00;;;;;;5052949;28;20041;-38
2023/03/02 04:02:00;;;;;;;4.53;3.45;;;15.90;1.00;;;;;;5052925;28;20041;-38
2023/03/02 04:04:33;;;;;;;4.18;2.92;;;15.80;1.00;;;;;;5037130;28;20051;-38
2023/03/02 04:07:05;;;;;;;3.83;3.00;;;15.80;1.00;;;;;;5053640;28;20044;-38
2023/03/02 04:09:36;;;;;;;6.40;3.15;;;15.80;1.00;;;;;;5053490;28;20492;-38
2023/03/02 04:12:05;;;;;;;3.95;2.67;;;15.80;1.00;;;;;;5053513;28;20041;-38
2023/03/02 04:14:33;;;;;;;4.32;2.88;;;15.80;1.00;;;;;;5052679;28;20076;-38
2023/03/02 04:17:04;;;;;;;4.03;2.63;;;15.80;1.00;;;;;;5071407;28;20470;-38
2023/03/02 04:19:34;;;;;;;3.47;3.10;;;15.80;1.00;;;;;;5037209;28;20479;-38
2023/03/02 04:22:02;;;;;;;4.47;2.70;;;15.70;1.00;;;;;;5052651;28;20063;-38
2023/03/02 04:24:30;;;;;;;4.88;3.25;;;15.70;1.00;;;;;;5052031;28;20662;-38
2023/03/02 04:27:01;;;;;;;2.90;2.10;;;15.70;1.00;;;;;;5052582;28;20044;-38
2023/03/02 04:29:31;;;;;;;6.05;2.55;;;15.70;1.00;;;;;;5052646;28;20048;-38
2023/03/02 04:31:59;;;;;;;4.55;2.45;;;15.70;1.00;;;;;;5053310;28;20109;-38
2023/03/02 04:34:27;;;;;;;5.00;2.70;;;15.70;1.00;;;;;;5072823;28;20042;-38
2023/03/02 04:36:54;;;;;;;6.57;3.83;;;15.70;1.00;;;;;;5075184;28;20036;-38
2023/03/02 04:39:22;;;;;;;3.15;2.55;;;15.70;1.00;;;;;;5075257;28;20579;-38
2023/03/02 04:41:51;;;;;;;3.33;2.70;;;15.60;1.00;;;;;;5057054;28;20044;-38
2023/03/02 04:44:19;;;;;;;4.05;2.85;;;15.60;1.00;;;;;;5074234;28;20090;-38
2023/03/02 04:46:47;;;;;;;3.50;2.75;;;15.60;1.00;;;;;;5075043;28;20036;-38
2023/03/02 04:49:16;;;;;;;4.03;2.38;;;15.60;1.00;;;;;;5057253;28;20036;-38
2023/03/02 04:51:45;;;;;;;2.88;2.15;;;15.60;1.00;;;;;;5074871;28;20411;-38
2023/03/02 04:54:24;;;;;;;4.10;2.58;;;15.60;1.00;;;;;;5074006;28;20075;-38
2023/03/02 04:56:52;;;;;;;4.70;2.63;;;15.60;1.00;;;;;;5074068;28;20045;-38
2023/03/02 04:59:24;;;;;;;4.57;2.63;;;15.60;1.00;;;;;;5055952;28;20106;-38
2023/03/02 05:01:53;;;;;;;3.40;2.40;;;15.50;1.00;;;;;;5073860;28;20388;-38
2023/03/02 05:04:20;;;;;;;4.28;2.03;;;15.50;1.00;;;;;;5073235;28;20040;-38
2023/03/02 05:06:47;;;;;;;3.70;2.38;;;15.50;1.00;;;;;;5074495;28;20044;-38
2023/03/02 05:09:15;;;;;;;3.78;2.47;;;15.50;1.00;;;;;;5074551;28;20047;-38
2023/03/02 05:11:42;;;;;;;4.40;2.63;;;15.50;1.00;;;;;;5075878;28;20047;-38
2023/03/02 05:14:11;;;;;;;3.08;2.55;;;15.50;1.00;;;;;;5077779;28;20087;-38
2023/03/02 05:16:40;;;;;;;3.65;2.30;;;15.50;1.00;;;;;;5074804;28;20068;-38
2023/03/02 05:19:09;;;;;;;3.65;2.40;;;15.40;1.00;;;;;;5058411;28;20040;-38
2023/03/02 05:21:36;;;;;;;3.33;2.47;;;15.40;1.00;;;;;;5073892;28;20036;-38
2023/03/02 05:24:03;;;;;;;3.42;2.25;;;15.40;1.00;;;;;;5073667;28;20601;-38
2023/03/02 05:26:30;;;;;;;4.43;2.47;;;15.40;1.00;;;;;;5074424;28;20087;-38
2023/03/02 05:28:57;;;;;;;7.80;2.20;;;15.40;1.00;;;;;;5073811;28;20120;-38
2023/03/02 05:31:35;;;;;;;15.18;3.38;;;15.40;1.00;;;;;;5066726;28;20049;-38
2023/03/02 05:34:04;;;;;;;9.60;3.20;;;15.40;1.00;;;;;;5051786;28;20693;-39
2023/03/02 05:36:31;;;;;;;5.53;3.08;;;15.40;1.00;;;;;;5073279;28;20145;-38
2023/03/02 05:38:58;;;;;;;8.43;4.00;;;15.40;1.00;;;;;;5073199;28;20033;-38
2023/03/02 05:41:25;;;;;;;8.48;2.80;;;15.30;1.00;;;;;;5074033;28;20048;-38
2023/03/02 05:43:52;;;;;;;3.97;2.70;;;15.30;1.00;;;;;;5073273;28;20454;-38
2023/03/02 05:46:19;;;;;;;5.55;2.40;;;15.30;1.00;;;;;;5072628;28;20044;-38
2023/03/02 05:48:48;;;;;;;4.35;2.58;;;15.30;1.00;;;;;;5073832;28;20079;-39
2023/03/02 05:51:14;;;;;;;3.60;2.50;;;15.30;1.00;;;;;;5074056;28;20134;-39
2023/03/02 05:53:41;;;;;;;6.88;3.00;;;15.20;1.00;;;;;;5073182;28;20420;-39
2023/03/02 05:56:08;;;;;;;5.75;3.25;;;15.20;1.00;;;;;;5073874;28;20052;-39
2023/03/02 05:58:35;;;;;;;6.65;2.85;;;15.20;1.00;;;;;;5073684;28;20503;-39
2023/03/02 06:01:10;;;;;;;5.15;2.35;;;15.20;1.00;;;;;;5071050;28;20434;-38
2023/03/02 06:03:41;;;;;;;3.92;2.80;;;15.20;1.00;;;;;;5071433;28;20036;-39
2023/03/02 06:06:07;;;;;;;7.93;2.70;;;15.20;1.00;;;;;;5072309;28;20040;-39
2023/03/02 06:08:39;;;;;;;4.35;2.72;;;15.20;1.00;;;;;;5072797;28;20052;-39
2023/03/02 06:11:07;;;;;;;3.88;2.38;;;15.20;1.00;;;;;;5073366;28;20044;-39
2023/03/02 06:13:34;;;;;;;6.25;2.95;;;15.10;1.00;;;;;;5072679;28;20071;-39
2023/03/02 06:16:00;;;;;;;5.07;2.80;;;15.20;1.00;;;;;;5073575;28;20051;-39
2023/03/02 06:18:27;;;;;;;6.28;2.30;;;15.10;1.00;;;;;;5073286;28;20131;-39
2023/03/02 06:20:54;;;;;;;5.00;3.13;;;15.10;1.00;;;;;;5073320;28;20041;-39
2023/03/02 06:23:21;;;;;;;7.50;3.35;;;15.10;1.00;;;;;;5072482;28;20048;-39
2023/03/02 06:25:48;;;;;;;5.75;3.15;;;15.10;1.00;;;;;;5073189;28;20456;-39
2023/03/02 06:28:15;;;;;;;4.97;3.20;;;15.10;1.00;;;;;;5073187;28;20048;-38
2023/03/02 06:30:42;;;;;;;5.18;3.15;;;15.00;1.00;;;;;;5072644;28;20044;-38
2023/03/02 06:33:09;;;;;;;5.20;3.20;;;15.00;1.00;;;;;;5071332;28;20052;-39
2023/03/02 06:35:36;;;;;;;7.30;3.45;;;15.00;1.00;;;;;;5054443;28;20045;-39
2023/03/02 06:38:03;;;;;;;7.00;3.65;;;15.00;1.00;;;;;;5071951;28;20069;-39
2023/03/02 06:40:30;;;;;;;7.03;3.45;;;15.00;1.00;;;;;;5071436;28;20043;-39
2023/03/02 06:42:59;;;;;;;4.82;3.33;;;15.00;1.00;;;;;;5064945;28;20046;-39
2023/03/02 06:45:28;;;;;;;8.15;4.15;;;15.00;1.00;;;;;;5057381;28;20075;-39
2023/03/02 06:47:55;;;;;;;8.70;4.50;;;15.00;1.00;;;;;;5054262;28;20101;-39
2023/03/02 06:50:22;;;;;;;6.65;3.85;;;14.90;1.00;;;;;;5053137;28;20044;-39
2023/03/02 06:52:49;;;;;;;6.90;4.15;;;14.90;1.00;;;;;;5053902;28;20048;-39
2023/03/02 06:55:15;;;;;;;7.43;4.28;;;14.90;1.00;;;;;;5068377;28;20454;-39
2023/03/02 06:57:42;;;;;;;7.28;4.45;;;14.90;1.00;;;;;;5072072;28;20051;-39
2023/03/02 07:00:16;;;;;;;8.07;4.70;;;14.90;1.00;;;;;;5071661;28;20110;-39
2023/03/02 07:02:44;;;;;;;6.65;4.55;;;14.90;1.00;;;;;;5070879;28;20446;-39
2023/03/02 07:05:11;;;;;;;8.27;5.32;;;14.90;1.00;;;;;;5071610;28;20095;-39
2023/03/02 07:07:38;;;;;;;7.60;4.80;;;14.90;1.00;;;;;;5071485;28;20048;-38
2023/03/02 07:10:06;;;;;;;7.47;4.82;;;14.80;1.00;;;;;;5072378;28;20116;-39
2023/03/02 07:12:34;;;;;;;5.95;4.20;;;14.90;1.00;;;;;;5071801;28;20052;-39
2023/03/02 07:15:01;;;;;;;7.93;5.53;;;14.80;1.00;;;;;;5071885;28;20059;-39
2023/03/02 07:17:27;;;;;;;7.95;4.35;;;14.80;1.00;;;;;;5072150;28;20732;-39
2023/03/02 07:19:54;;;;;;;6.57;4.60;;;14.80;1.00;;;;;;5072095;28;20384;-39
2023/03/02 07:22:21;;;;;;;9.43;5.32;;;14.80;1.00;;;;;;5071425;28;20128;-39
2023/03/02 07:24:48;;;;;;;8.90;5.40;;;14.80;1.00;;;;;;5071479;28;20116;-39
2023/03/02 07:27:14;;;;;;;7.72;5.82;;;14.80;1.00;;;;;;5072034;28;20070;-39
2023/03/02 07:29:41;;;;;;;8.82;5.47;;;14.80;1.00;;;;;;5071919;28;20044;-39
2023/03/02 07:32:08;;;;;;;7.28;5.30;;;14.70;1.00;;;;;;5071114;28;20045;-39
2023/03/02 07:34:38;;;;;;;9.75;6.18;;;14.70;1.00;;;;;;5070624;28;20102;-39
2023/03/02 07:37:05;;;;;;;9.52;6.00;;;14.70;1.00;;;;;;5071103;28;20052;-39
2023/03/02 07:39:31;;;;;;;8.88;5.70;;;14.70;1.00;;;;;;5071127;28;20045;-38
2023/03/02 07:42:00;;;;;;;9.45;5.60;;;14.70;1.00;;;;;;5071793;28;20399;-38
2023/03/02 07:44:28;;;;;;;10.88;5.47;;;14.70;1.00;;;;;;5053236;28;20044;-39
2023/03/02 07:46:55;;;;;;;8.82;6.03;;;14.70;1.00;;;;;;5071716;28;20044;-39
2023/03/02 07:49:22;;;;;;;8.63;6.05;;;14.70;1.00;;;;;;5071879;28;20090;-39
2023/03/02 07:51:48;;;;;;;11.27;6.53;;;14.70;1.00;;;;;;5071805;28;20048;-39
2023/03/02 07:54:15;;;;;;;10.25;6.50;;;14.60;1.00;;;;;;5071026;28;20040;-39
2023/03/02 07:56:42;;;;;;;8.80;6.20;;;14.60;1.00;;;;;;5071657;28;20048;-39
2023/03/02 07:59:11;;;;;;;8.93;6.07;;;14.60;1.00;;;;;;5070968;28;20047;-38
2023/03/02 08:01:38;;;;;;;10.02;5.85;;;14.60;1.00;;;;;;5070777;28;20127;-39
2023/03/02 08:04:05;;;;;;;10.00;5.78;;;14.60;1.00;;;;;;5070040;28;20037;-38
2023/03/02 08:06:32;;;;;;;9.38;6.53;;;14.60;1.00;;;;;;5070774;28;20053;-39
2023/03/02 08:09:02;;;;;;;9.35;6.47;;;14.60;1.00;;;;;;5072789;28;20040;-38
2023/03/02 08:11:29;;;;;;;10.00;6.00;;;14.60;1.00;;;;;;5075727;28;20044;-39
2023/03/02 08:14:01;;;;;;;7.85;5.22;;;14.60;1.00;;;;;;5074996;28;20083;-38
2023/03/02 08:16:28;;;;;;;10.10;6.55;;;14.60;1.00;;;;;;5075628;28;20057;-39
2023/03/02 08:18:56;;;;;;;10.73;6.10;;;14.60;1.00;;;;;;5075524;28;20036;-38
2023/03/02 08:21:27;;;;;;;10.43;6.75;;;14.60;1.00;;;;;;5075407;28;20047;-38
2023/03/02 08:23:54;;;;;;;10.85;6.32;;;14.60;1.00;;;;;;5074771;28;20466;-38
2023/03/02 08:26:21;;;;;;;9.35;6.03;;;14.60;1.00;;;;;;5075496;28;20044;-38
2023/03/02 08:28:47;;;;;;;8.95;5.75;;;14.60;1.00;;;;;;5075314;28;20048;-39
2023/03/02 08:31:14;;;;;;;8.68;6.18;;;14.50;1.00;;;;;;5074910;28;20048;-38
2023/03/02 08:33:42;;;;;;;9.30;6.45;;;14.50;1.00;;;;;;5073622;28;20494;-39
2023/03/02 08:36:15;;;;;;;11.07;6.40;;;14.50;1.00;;;;;;5074475;28;20435;-39
2023/03/02 08:38:43;;;;;;;8.98;5.88;;;14.50;1.00;;;;;;5074195;28;20488;-38
2023/03/02 08:41:14;;;;;;;11.52;6.63;;;14.50;1.00;;;;;;5074627;28;20123;-39
2023/03/02 08:43:41;;;;;;;11.32;6.68;;;14.50;1.00;;;;;;5074362;28;20413;-39
2023/03/02 08:46:09;;;;;;;8.77;5.68;;;14.50;1.00;;;;;;5075079;28;20044;-38
2023/03/02 08:48:35;;;;;;;11.27;6.47;;;14.50;1.00;;;;;;5057084;28;20059;-38
2023/03/02 08:51:06;;;;;;;11.45;7.40;;;14.50;1.00;;;;;;5074870;28;20040;-39
2023/03/02 08:53:37;;;;;;;10.60;7.40;;;14.50;1.00;;;;;;5074178;28;20049;-39
2023/03/02 08:56:07;;;;;;;9.60;6.20;;;14.50;1.00;;;;;;5074961;28;20048;-38
2023/03/02 08:58:34;;;;;;;9.13;5.82;;;14.50;1.00;;;;;;5074729;28;20045;-39
2023/03/02 09:01:00;;;;;;;10.85;7.10;;;14.50;1.00;;;;;;5074610;28;20063;-39
2023/03/02 09:03:27;;;;;;;10.93;7.00;;;14.50;1.00;;;;;;5073184;28;20040;-38
2023/03/02 09:05:54;;;;;;;8.77;5.93;;;14.50;1.00;;;;;;5073838;28;20044;-38
2023/03/02 09:08:21;;;;;;;12.95;6.70;;;14.40;1.00;;;;;;5073653;28;20064;-38
2023/03/02 09:10:47;;;;;;;11.98;6.50;;;14.40;1.00;;;;;;5073957;28;20504;-39
2023/03/02 09:13:14;;;;;;;11.52;6.35;;;14.40;1.00;;;;;;5073572;28;20052;-38
2023/03/02 09:15:41;;;;;;;13.70;6.38;;;14.50;1.00;;;;;;5074562;28;20041;-38
2023/03/02 09:18:08;;;;;;;12.18;6.45;;;14.40;1.00;;;;;;5074368;28;20072;-38
2023/03/02 09:20:34;;;;;;;10.65;6.22;;;14.40;1.00;;;;;;5074186;28;20036;-38
2023/03/02 09:23:01;;;;;;;13.65;7.43;;;14.40;1.00;;;;;;5073376;28;20044;-38
2023/03/02 09:25:28;;;;;;;12.18;6.72;;;14.40;1.00;;;;;;5074194;28;20111;-38
2023/03/02 09:27:55;;;;;;;13.25;6.88;;;14.40;1.00;;;;;;5074284;28;20041;-38
2023/03/02 09:30:22;;;;;;;13.32;7.45;;;14.40;1.00;;;;;;5074178;28;20127;-38
2023/03/02 09:32:48;;;;;;;13.15;8.05;;;14.40;1.00;;;;;;5073266;28;20044;-38
2023/03/02 09:35:15;;;;;;;13.00;7.25;;;14.40;1.00;;;;;;5073282;28;20123;-38
2023/03/02 09:37:42;;;;;;;14.85;8.25;;;14.40;1.00;;;;;;5073142;28;20488;-38
2023/03/02 09:40:22;;;;;;;11.90;7.63;;;14.40;1.00;;;;;;5073271;28;20033;-38
2023/03/02 09:43:04;;;;;;;10.82;6.78;;;14.40;1.00;;;;;;5072802;28;20045;-38
2023/03/02 09:46:01;;;;;;;13.43;8.35;;;14.40;1.00;;;;;;5074057;28;20060;-38
2023/03/02 09:48:37;;;;;;;17.00;8.30;;;14.40;1.00;;;;;;5073921;28;20045;-38
2023/03/02 09:51:22;;;;;;;13.73;8.35;;;14.40;1.00;;;;;;5074106;28;20052;-38
2023/03/02 09:54:24;;;;;;;14.73;7.10;;;14.40;1.00;;;;;;5073032;28;20049;-38
2023/03/02 09:56:58;;;;;;;14.95;8.55;;;14.40;1.00;;;;;;5011701;28;20079;-38
2023/03/02 09:59:38;;;;;;;13.60;8.73;;;14.30;1.00;;;;;;5064556;28;20407;-38
2023/03/02 10:02:34;;;;;;;14.45;8.30;;;14.30;1.00;;;;;;5072772;28;20037;-38
2023/03/02 10:05:07;;;;;;;13.65;7.82;;;14.30;1.00;;;;;;5072432;28;20049;-38
2023/03/02 10:07:37;;;;;;;11.90;8.07;;;14.30;1.00;;;;;;5072741;28;20048;-38
2023/03/02 10:10:41;;;;;;;13.18;7.60;;;14.30;1.00;;;;;;5073189;28;20112;-38
2023/03/02 10:13:27;;;;;;;17.67;8.30;;;14.30;1.00;;;;;;5072542;28;20049;-38
2023/03/02 10:15:57;;;;;;;15.00;8.88;;;14.30;1.00;;;;;;5073403;28;20060;-38
2023/03/02 10:18:45;;;;;;;14.50;8.13;;;14.30;1.00;;;;;;5072620;28;20139;-38
2023/03/02 10:21:37;;;;;;;14.40;7.20;;;14.30;1.00;;;;;;5072957;28;20400;-39
2023/03/02 10:24:25;;;;;;;12.35;8.30;;;14.30;1.00;;;;;;5072518;28;20492;-38
2023/03/02 10:27:10;;;;;;;13.02;7.38;;;14.30;1.00;;;;;;5072937;28;20178;-37
2023/03/02 10:29:49;;;;;;;13.93;8.77;;;14.30;1.00;;;;;;5072013;28;20074;-39
2023/03/02 10:32:40;;;;;;;12.43;7.95;;;14.30;1.00;;;;;;5071314;28;20478;-40
2023/03/02 10:35:18;;;;;;;12.73;7.97;;;14.30;1.00;;;;;;5072181;28;20048;-40
2023/03/02 10:37:45;;;;;;;11.73;7.03;;;14.30;1.00;;;;;;5072435;28;20064;-40
2023/03/02 10:40:20;;;;;;;10.07;6.03;;;14.30;1.00;;;;;;5072692;28;20040;-40
2023/03/02 10:42:48;;;;;;;12.55;6.28;;;14.30;1.00;;;;;;5072026;28;20540;-40
2023/03/02 10:45:29;;;;;;;10.98;6.70;;;14.30;1.00;;;;;;5072803;28;20056;-40
2023/03/02 10:48:37;;;;;;;13.75;6.57;;;14.30;1.00;;;;;;5071886;28;20048;-39
2023/03/02 10:52:23;;;;;;;12.48;7.05;;;14.30;1.00;;;;;;5079384;22;20056;-39
2023/03/02 10:55:02;;;;;;;13.65;6.88;;;14.20;1.00;;;;;;5059068;28;20566;-39
2023/03/02 10:57:37;;;;;;;10.75;6.28;;;14.20;1.00;;;;;;5092799;28;20040;-40
2023/03/02 11:00:21;;;;;;;11.70;6.68;;;14.20;1.00;;;;;;5092827;28;20044;-39
2023/03/02 11:02:49;;;;;;;;;;;14.20;1.00;;;;;;5092056;28;20040;-40
2023/03/02 11:05:25;;;;;;;12.07;7.28;;;14.20;1.00;;;;;;5092693;28;19951;-40
2023/03/02 11:07:57;;;;;;;12.50;6.38;;;14.30;1.00;;;;;;5092631;28;20119;-39
2023/03/02 11:10:52;;;;;;;10.45;6.35;;;14.20;1.00;;;;;;5092753;28;20426;-39
2023/03/02 11:13:28;;;;;;;15.60;6.72;;;14.30;1.00;;;;;;5086614;28;20063;-40
2023/03/02 11:15:59;;;;;;;12.95;6.93;;;14.20;1.00;;;;;;5092565;28;20417;-39
2023/03/02 11:18:35;;;;;;;11.98;7.32;;;14.20;1.00;;;;;;5074348;28;20101;-39
2023/03/02 11:21:17;;;;;;;13.45;7.53;;;14.20;1.00;;;;;;5092027;28;20044;-40
2023/03/02 11:24:02;;;;;;;10.20;5.88;;;14.20;1.00;;;;;;5090732;28;20036;-39
2023/03/02 11:26:52;;;;;;;11.95;7.00;;;14.20;1.00;;;;;;5091515;28;20035;-40
2023/03/02 11:29:31;;;;;;;12.25;6.00;;;14.20;1.00;;;;;;5073290;28;20410;-40
2023/03/02 11:32:16;;;;;;;8.93;6.13;;;14.20;1.00;;;;;;5092019;28;20048;-40
2023/03/02 11:34:55;;;;;;;12.43;6.25;;;14.20;1.00;;;;;;5091869;28;20047;-39
2023/03/02 11:37:33;;;;;;;11.80;6.75;;;14.30;1.00;;;;;;5092255;28;20067;-40
2023/03/02 11:40:21;;;;;;;10.07;6.32;;;14.20;1.00;;;;;;5092180;28;20040;-40
2023/03/02 11:42:49;;;;;;;11.18;6.18;;;14.30;1.00;;;;;;5091310;28;20093;-39
2023/03/02 11:45:31;;;;;;;10.57;6.40;;;14.20;1.00;;;;;;5091846;28;20115;-39
2023/03/02 11:48:23;;;;;;;9.35;6.07;;;14.30;1.00;;;;;;5091258;28;20123;-39
2023/03/02 11:50:59;;;;;;;8.30;5.68;;;14.20;1.00;;;;;;5090952;28;20040;-39
2023/03/02 11:53:37;;;;;;;9.40;5.70;;;14.30;1.00;;;;;;5090258;28;20535;-39
2023/03/02 11:56:04;;;;;;;10.90;6.15;;;14.30;1.00;;;;;;5091667;28;20044;-40
2023/03/02 11:58:32;;;;;;;10.65;6.30;;;14.20;1.00;;;;;;5091890;28;20122;-40
2023/03/02 12:01:01;;;;;;;9.98;6.15;;;14.20;1.00;;;;;;5091835;28;20040;-37
2023/03/02 12:03:30;;;;;;;10.95;6.25;;;14.20;1.00;;;;;;5090883;28;20581;-40
2023/03/02 12:05:57;;;;;;;9.40;5.75;;;14.20;1.00;;;;;;5091812;28;20044;-40
2023/03/02 12:08:23;;;;;;;10.73;5.75;;;14.20;1.00;;;;;;5091861;28;20089;-40
2023/03/02 12:11:15;;;;;;;10.18;6.22;;;14.20;1.00;;;;;;5091884;28;20083;-40
2023/03/02 12:13:49;;;;;;;9.73;5.82;;;14.20;1.00;;;;;;5090844;28;20094;-40
2023/03/02 12:16:35;;;;;;;10.23;5.78;;;14.20;1.00;;;;;;5091750;28;20574;-40
2023/03/02 12:19:11;;;;;;;9.82;5.65;;;14.20;1.00;;;;;;5090825;28;20044;-39
2023/03/02 12:21:41;;;;;;;8.75;5.57;;;14.20;1.00;;;;;;5090747;28;20052;-35
2023/03/02 12:24:34;;;;;;;10.65;5.72;;;14.20;1.00;;;;;;5047677;28;20045;-37
2023/03/02 12:27:19;;;;;;;9.30;4.95;;;14.20;1.00;;;;;;5056344;28;20316;-38
2023/03/02 12:29:54;;;;;;;9.45;5.40;;;14.20;1.00;;;;;;5042790;28;20041;-37
2023/03/02 12:32:28;;;;;;;10.27;6.13;;;14.30;1.00;;;;;;5045771;28;20037;-37
2023/03/02 12:35:11;;;;;;;8.32;5.22;;;14.20;1.00;;;;;;5070920;28;20033;-38
2023/03/02 12:37:41;;;;;;;7.40;4.90;;;14.30;1.00;;;;;;5064523;28;20045;-37
2023/03/02 12:40:11;;;;;;;8.80;5.15;;;14.30;1.00;;;;;;5042748;28;20037;-37
2023/03/02 12:42:40;;;;;;;7.97;5.07;;;14.20;1.00;;;;;;5047810;28;20041;-37
2023/03/02 12:45:13;;;;;;;10.02;5.57;;;14.20;1.00;;;;;;5058448;28;20049;-38
2023/03/02 12:47:45;;;;;;;8.77;5.55;;;14.20;1.00;;;;;;5070037;28;20070;-37
2023/03/02 12:50:19;;;;;;;7.80;4.45;;;14.30;1.00;;;;;;5044014;28;20048;-37
2023/03/02 12:53:03;;;;;;;8.25;4.97;;;14.20;1.00;;;;;;5069757;28;20127;-38
2023/03/02 12:55:30;;;;;;;;;;;14.20;1.00;;;;;;5073654;28;20048;-37
2023/03/02 12:58:02;;;;;;;8.32;4.35;;;14.20;1.00;;;;;;5074727;28;19927;-37
2023/03/02 13:00:32;;;;;;;8.23;4.13;;;14.20;1.00;;;;;;5062306;28;20038;-37
2023/03/02 13:03:05;;;;;;;6.88;4.30;;;14.20;1.00;;;;;;5059308;28;20044;-38
2023/03/02 13:05:33;;;;;;;;;;;14.20;1.00;;;;;;5074986;28;20515;-38
2023/03/02 13:08:04;;;;;;;7.32;4.35;;;14.20;1.00;;;;;;5074602;28;20320;-39
2023/03/02 13:10:39;;;;;;;8.98;4.82;;;14.20;1.00;;;;;;5074709;28;20047;-39
2023/03/02 13:13:23;;;;;;;6.40;3.63;;;14.20;1.00;;;;;;5073173;28;20546;-36
2023/03/02 13:15:53;;;;;;;7.43;3.83;;;14.20;1.00;;;;;;5073744;28;20691;-38
2023/03/02 13:18:22;;;;;;;8.30;4.60;;;14.20;1.00;;;;;;5055553;28;20627;-38